Terminal Aerodrome Forecast
Issued by NWS

Home | Current Version | Previous Version | Text Only | Print | Product List | Glossary On
Versions: 1 2 3 4 5 6 7 8 9 10 11 12 13 14 15
000
FTUS46 KMTR 202300 RRA
TAFSJC
TAF
KSJC 202345Z 2100/2124 24005KT P6SM SCT012 OVC060
     FM210300 12005KT 6SM -RA BR SCT010 BKN025 OVC035
     FM210900 VRB03KT P6SM VCSH BKN015 OVC050
     FM211900 21007KT P6SM SCT015 BKN050=

USA.gov is the U.S. government's official web portal to all federal, state and local government web resources and services.